sensor_id;sensor_type;location;lat;lon;timestamp;P1;durP1;ratioP1;P2;durP2;ratioP2
18883;SDS011;9574;47.282;9.640;2023-04-21T00:00:01;4.80;;;3.07;;
18883;SDS011;9574;47.282;9.640;2023-04-21T00:02:33;4.17;;;2.80;;
18883;SDS011;9574;47.282;9.640;2023-04-21T00:05:03;3.20;;;2.90;;
18883;SDS011;9574;47.282;9.640;2023-04-21T00:07:33;3.70;;;2.80;;
18883;SDS011;9574;47.282;9.640;2023-04-21T00:10:01;3.63;;;2.90;;
18883;SDS011;9574;47.282;9.640;2023-04-21T00:12:29;4.10;;;2.97;;
18883;SDS011;9574;47.282;9.640;2023-04-21T00:14:56;4.37;;;2.50;;
18883;SDS011;9574;47.282;9.640;2023-04-21T00:17:23;4.07;;;2.83;;
18883;SDS011;9574;47.282;9.640;2023-04-21T00:19:51;4.37;;;3.10;;
18883;SDS011;9574;47.282;9.640;2023-04-21T00:22:18;3.67;;;3.17;;
18883;SDS011;9574;47.282;9.640;2023-04-21T00:24:45;4.27;;;3.37;;
18883;SDS011;9574;47.282;9.640;2023-04-21T00:27:12;7.03;;;2.90;;
18883;SDS011;9574;47.282;9.640;2023-04-21T00:29:40;4.40;;;3.30;;
18883;SDS011;9574;47.282;9.640;2023-04-21T00:32:07;4.00;;;3.03;;
18883;SDS011;9574;47.282;9.640;2023-04-21T00:34:35;5.00;;;3.60;;
18883;SDS011;9574;47.282;9.640;2023-04-21T00:37:03;5.00;;;3.47;;
18883;SDS011;9574;47.282;9.640;2023-04-21T00:39:30;5.13;;;3.70;;
18883;SDS011;9574;47.282;9.640;2023-04-21T00:41:57;7.03;;;3.63;;
18883;SDS011;9574;47.282;9.640;2023-04-21T00:44:25;4.17;;;3.37;;
18883;SDS011;9574;47.282;9.640;2023-04-21T00:46:52;5.93;;;3.77;;
18883;SDS011;9574;47.282;9.640;2023-04-21T00:49:19;3.07;;;2.63;;
18883;SDS011;9574;47.282;9.640;2023-04-21T00:51:47;4.20;;;3.27;;
18883;SDS011;9574;47.282;9.640;2023-04-21T00:54:16;5.60;;;2.97;;
18883;SDS011;9574;47.282;9.640;2023-04-21T00:56:44;4.73;;;2.93;;
18883;SDS011;9574;47.282;9.640;2023-04-21T00:59:11;5.73;;;3.87;;
18883;SDS011;9574;47.282;9.640;2023-04-21T01:01:38;4.17;;;3.37;;
18883;SDS011;9574;47.282;9.640;2023-04-21T01:04:05;3.67;;;3.17;;
18883;SDS011;9574;47.282;9.640;2023-04-21T01:06:34;3.30;;;3.00;;
18883;SDS011;9574;47.282;9.640;2023-04-21T01:09:01;4.67;;;3.30;;
18883;SDS011;9574;47.282;9.640;2023-04-21T01:11:30;5.57;;;3.23;;
18883;SDS011;9574;47.282;9.640;2023-04-21T01:13:57;5.80;;;3.63;;
18883;SDS011;9574;47.282;9.640;2023-04-21T01:16:24;5.40;;;4.00;;
18883;SDS011;9574;47.282;9.640;2023-04-21T01:18:52;6.17;;;3.63;;
18883;SDS011;9574;47.282;9.640;2023-04-21T01:21:19;6.43;;;4.00;;
18883;SDS011;9574;47.282;9.640;2023-04-21T01:23:48;5.00;;;3.93;;
18883;SDS011;9574;47.282;9.640;2023-04-21T01:26:16;5.07;;;3.33;;
18883;SDS011;9574;47.282;9.640;2023-04-21T01:28:43;6.40;;;3.90;;
18883;SDS011;9574;47.282;9.640;2023-04-21T01:31:11;4.83;;;3.47;;
18883;SDS011;9574;47.282;9.640;2023-04-21T01:33:39;5.47;;;4.07;;
18883;SDS011;9574;47.282;9.640;2023-04-21T01:36:06;6.47;;;3.83;;
18883;SDS011;9574;47.282;9.640;2023-04-21T01:38:36;6.17;;;4.40;;
18883;SDS011;9574;47.282;9.640;2023-04-21T01:41:05;5.27;;;3.97;;
18883;SDS011;9574;47.282;9.640;2023-04-21T01:43:33;5.27;;;3.90;;
18883;SDS011;9574;47.282;9.640;2023-04-21T01:46:01;7.20;;;4.33;;
18883;SDS011;9574;47.282;9.640;2023-04-21T01:48:28;5.00;;;3.60;;
18883;SDS011;9574;47.282;9.640;2023-04-21T01:50:55;4.23;;;3.20;;
18883;SDS011;9574;47.282;9.640;2023-04-21T01:53:22;5.10;;;3.63;;
18883;SDS011;9574;47.282;9.640;2023-04-21T01:55:50;4.93;;;3.70;;
18883;SDS011;9574;47.282;9.640;2023-04-21T01:58:19;4.90;;;3.40;;
18883;SDS011;9574;47.282;9.640;2023-04-21T02:00:46;6.83;;;4.10;;
18883;SDS011;9574;47.282;9.640;2023-04-21T02:03:13;7.53;;;4.27;;
18883;SDS011;9574;47.282;9.640;2023-04-21T02:05:40;5.00;;;3.50;;
18883;SDS011;9574;47.282;9.640;2023-04-21T02:08:07;6.33;;;4.10;;
18883;SDS011;9574;47.282;9.640;2023-04-21T02:10:34;5.23;;;3.80;;
18883;SDS011;9574;47.282;9.640;2023-04-21T02:13:01;5.80;;;3.70;;
18883;SDS011;9574;47.282;9.640;2023-04-21T02:15:29;4.93;;;3.63;;
18883;SDS011;9574;47.282;9.640;2023-04-21T02:17:57;5.10;;;3.60;;
18883;SDS011;9574;47.282;9.640;2023-04-21T02:20:24;5.23;;;3.70;;
18883;SDS011;9574;47.282;9.640;2023-04-21T02:22:51;4.50;;;3.77;;
18883;SDS011;9574;47.282;9.640;2023-04-21T02:25:18;5.77;;;3.63;;
18883;SDS011;9574;47.282;9.640;2023-04-21T02:27:45;6.87;;;4.97;;
18883;SDS011;9574;47.282;9.640;2023-04-21T02:30:12;7.03;;;5.37;;
18883;SDS011;9574;47.282;9.640;2023-04-21T02:32:41;6.43;;;4.37;;
18883;SDS011;9574;47.282;9.640;2023-04-21T02:35:08;7.37;;;4.70;;
18883;SDS011;9574;47.282;9.640;2023-04-21T02:37:35;7.50;;;4.63;;
18883;SDS011;9574;47.282;9.640;2023-04-21T02:40:02;5.50;;;3.73;;
18883;SDS011;9574;47.282;9.640;2023-04-21T02:42:31;5.80;;;3.87;;
18883;SDS011;9574;47.282;9.640;2023-04-21T02:44:58;9.33;;;4.50;;
18883;SDS011;9574;47.282;9.640;2023-04-21T02:47:25;6.70;;;4.50;;
18883;SDS011;9574;47.282;9.640;2023-04-21T02:49:53;8.43;;;4.03;;
18883;SDS011;9574;47.282;9.640;2023-04-21T02:52:20;5.70;;;4.40;;
18883;SDS011;9574;47.282;9.640;2023-04-21T02:54:47;7.00;;;4.53;;
18883;SDS011;9574;47.282;9.640;2023-04-21T02:57:14;6.07;;;4.37;;
18883;SDS011;9574;47.282;9.640;2023-04-21T02:59:41;7.13;;;4.70;;
18883;SDS011;9574;47.282;9.640;2023-04-21T03:02:08;5.90;;;4.17;;
18883;SDS011;9574;47.282;9.640;2023-04-21T03:04:35;5.57;;;3.97;;
18883;SDS011;9574;47.282;9.640;2023-04-21T03:07:04;6.37;;;4.57;;
18883;SDS011;9574;47.282;9.640;2023-04-21T03:09:36;5.30;;;3.43;;
18883;SDS011;9574;47.282;9.640;2023-04-21T03:12:03;6.00;;;3.87;;
18883;SDS011;9574;47.282;9.640;2023-04-21T03:14:30;6.23;;;3.73;;
18883;SDS011;9574;47.282;9.640;2023-04-21T03:17:00;6.70;;;4.57;;
18883;SDS011;9574;47.282;9.640;2023-04-21T03:19:27;5.57;;;4.00;;
18883;SDS011;9574;47.282;9.640;2023-04-21T03:21:55;5.80;;;4.20;;
18883;SDS011;9574;47.282;9.640;2023-04-21T03:24:23;5.40;;;4.03;;
18883;SDS011;9574;47.282;9.640;2023-04-21T03:26:50;5.77;;;3.90;;
18883;SDS011;9574;47.282;9.640;2023-04-21T03:29:17;6.63;;;4.63;;
18883;SDS011;9574;47.282;9.640;2023-04-21T03:31:44;9.17;;;4.93;;
18883;SDS011;9574;47.282;9.640;2023-04-21T03:34:11;6.40;;;4.10;;
18883;SDS011;9574;47.282;9.640;2023-04-21T03:36:38;8.23;;;4.50;;
18883;SDS011;9574;47.282;9.640;2023-04-21T03:39:05;6.50;;;4.10;;
18883;SDS011;9574;47.282;9.640;2023-04-21T03:41:34;5.50;;;3.93;;
18883;SDS011;9574;47.282;9.640;2023-04-21T03:44:01;6.00;;;3.57;;
18883;SDS011;9574;47.282;9.640;2023-04-21T03:46:28;6.03;;;3.50;;
18883;SDS011;9574;47.282;9.640;2023-04-21T03:48:55;5.37;;;3.57;;
18883;SDS011;9574;47.282;9.640;2023-04-21T03:51:22;4.53;;;3.43;;
18883;SDS011;9574;47.282;9.640;2023-04-21T03:53:49;6.67;;;3.90;;
18883;SDS011;9574;47.282;9.640;2023-04-21T03:56:16;5.60;;;3.70;;
18883;SDS011;9574;47.282;9.640;2023-04-21T03:58:44;5.20;;;3.57;;
18883;SDS011;9574;47.282;9.640;2023-04-21T04:01:11;5.43;;;3.73;;
18883;SDS011;9574;47.282;9.640;2023-04-21T04:03:38;4.73;;;3.43;;
18883;SDS011;9574;47.282;9.640;2023-04-21T04:06:05;5.00;;;4.00;;
18883;SDS011;9574;47.282;9.640;2023-04-21T04:08:32;4.13;;;3.30;;
18883;SDS011;9574;47.282;9.640;2023-04-21T04:11:00;4.70;;;3.50;;
18883;SDS011;9574;47.282;9.640;2023-04-21T04:13:27;6.53;;;4.10;;
18883;SDS011;9574;47.282;9.640;2023-04-21T04:15:56;5.80;;;3.60;;
18883;SDS011;9574;47.282;9.640;2023-04-21T04:18:23;9.53;;;4.63;;
18883;SDS011;9574;47.282;9.640;2023-04-21T04:20:50;6.07;;;4.30;;
18883;SDS011;9574;47.282;9.640;2023-04-21T04:23:17;8.00;;;4.97;;
18883;SDS011;9574;47.282;9.640;2023-04-21T04:25:44;7.17;;;4.73;;
18883;SDS011;9574;47.282;9.640;2023-04-21T04:28:12;8.07;;;5.33;;
18883;SDS011;9574;47.282;9.640;2023-04-21T04:30:39;7.00;;;4.40;;
18883;SDS011;9574;47.282;9.640;2023-04-21T04:33:08;9.20;;;5.83;;
18883;SDS011;9574;47.282;9.640;2023-04-21T04:35:35;12.60;;;6.77;;
18883;SDS011;9574;47.282;9.640;2023-04-21T04:38:02;7.37;;;4.70;;
18883;SDS011;9574;47.282;9.640;2023-04-21T04:40:31;12.17;;;6.10;;
18883;SDS011;9574;47.282;9.640;2023-04-21T04:42:58;10.83;;;6.30;;
18883;SDS011;9574;47.282;9.640;2023-04-21T04:45:26;9.50;;;5.57;;
18883;SDS011;9574;47.282;9.640;2023-04-21T04:47:57;7.83;;;5.00;;
18883;SDS011;9574;47.282;9.640;2023-04-21T04:50:25;6.17;;;4.47;;
18883;SDS011;9574;47.282;9.640;2023-04-21T04:52:52;4.97;;;3.70;;
18883;SDS011;9574;47.282;9.640;2023-04-21T04:55:20;6.70;;;4.20;;
18883;SDS011;9574;47.282;9.640;2023-04-21T04:57:47;6.37;;;3.97;;
18883;SDS011;9574;47.282;9.640;2023-04-21T05:02:45;6.33;;;4.10;;
18883;SDS011;9574;47.282;9.640;2023-04-21T05:05:12;5.80;;;4.03;;
18883;SDS011;9574;47.282;9.640;2023-04-21T05:07:40;5.97;;;4.30;;
18883;SDS011;9574;47.282;9.640;2023-04-21T05:10:07;6.00;;;3.73;;
18883;SDS011;9574;47.282;9.640;2023-04-21T05:12:34;6.67;;;4.10;;
18883;SDS011;9574;47.282;9.640;2023-04-21T05:15:01;6.33;;;4.03;;
18883;SDS011;9574;47.282;9.640;2023-04-21T05:17:28;6.70;;;4.60;;
18883;SDS011;9574;47.282;9.640;2023-04-21T05:19:56;5.03;;;3.70;;
18883;SDS011;9574;47.282;9.640;2023-04-21T05:22:23;5.10;;;3.83;;
18883;SDS011;9574;47.282;9.640;2023-04-21T05:24:51;6.07;;;3.50;;
18883;SDS011;9574;47.282;9.640;2023-04-21T05:27:19;5.40;;;3.50;;
18883;SDS011;9574;47.282;9.640;2023-04-21T05:29:46;5.27;;;4.10;;
18883;SDS011;9574;47.282;9.640;2023-04-21T05:32:13;4.63;;;3.30;;
18883;SDS011;9574;47.282;9.640;2023-04-21T05:34:40;4.73;;;3.90;;
18883;SDS011;9574;47.282;9.640;2023-04-21T05:37:08;9.77;;;3.80;;
18883;SDS011;9574;47.282;9.640;2023-04-21T05:39:36;5.17;;;3.40;;
18883;SDS011;9574;47.282;9.640;2023-04-21T05:42:04;5.20;;;3.80;;
18883;SDS011;9574;47.282;9.640;2023-04-21T05:44:34;5.83;;;4.27;;
18883;SDS011;9574;47.282;9.640;2023-04-21T05:47:02;8.10;;;5.30;;
18883;SDS011;9574;47.282;9.640;2023-04-21T05:49:29;12.60;;;7.67;;
18883;SDS011;9574;47.282;9.640;2023-04-21T05:51:56;9.03;;;5.43;;
18883;SDS011;9574;47.282;9.640;2023-04-21T05:54:23;10.23;;;4.93;;
18883;SDS011;9574;47.282;9.640;2023-04-21T05:56:51;6.27;;;4.47;;
18883;SDS011;9574;47.282;9.640;2023-04-21T05:59:19;9.03;;;4.70;;
18883;SDS011;9574;47.282;9.640;2023-04-21T06:01:46;7.43;;;5.43;;
18883;SDS011;9574;47.282;9.640;2023-04-21T06:04:13;7.00;;;4.60;;
18883;SDS011;9574;47.282;9.640;2023-04-21T06:06:40;6.40;;;3.93;;
18883;SDS011;9574;47.282;9.640;2023-04-21T06:09:08;6.07;;;3.53;;
18883;SDS011;9574;47.282;9.640;2023-04-21T06:11:35;5.97;;;3.70;;
18883;SDS011;9574;47.282;9.640;2023-04-21T06:14:02;6.10;;;3.73;;
18883;SDS011;9574;47.282;9.640;2023-04-21T06:16:30;5.27;;;3.60;;
18883;SDS011;9574;47.282;9.640;2023-04-21T06:19:01;5.37;;;3.70;;
18883;SDS011;9574;47.282;9.640;2023-04-21T06:21:28;4.30;;;3.30;;
18883;SDS011;9574;47.282;9.640;2023-04-21T06:23:56;4.17;;;3.03;;
18883;SDS011;9574;47.282;9.640;2023-04-21T06:26:23;7.50;;;3.57;;
18883;SDS011;9574;47.282;9.640;2023-04-21T06:28:50;4.57;;;3.50;;
18883;SDS011;9574;47.282;9.640;2023-04-21T06:31:17;4.97;;;3.50;;
18883;SDS011;9574;47.282;9.640;2023-04-21T06:33:46;5.63;;;3.57;;
18883;SDS011;9574;47.282;9.640;2023-04-21T06:36:13;4.90;;;3.60;;
18883;SDS011;9574;47.282;9.640;2023-04-21T06:38:40;6.37;;;4.40;;
18883;SDS011;9574;47.282;9.640;2023-04-21T06:41:07;6.00;;;3.60;;
18883;SDS011;9574;47.282;9.640;2023-04-21T06:43:34;4.83;;;3.50;;
18883;SDS011;9574;47.282;9.640;2023-04-21T06:46:01;3.37;;;2.70;;
18883;SDS011;9574;47.282;9.640;2023-04-21T06:48:28;4.27;;;2.90;;
18883;SDS011;9574;47.282;9.640;2023-04-21T06:50:57;3.03;;;2.63;;
18883;SDS011;9574;47.282;9.640;2023-04-21T06:53:24;3.03;;;2.63;;
18883;SDS011;9574;47.282;9.640;2023-04-21T06:55:51;3.33;;;2.70;;
18883;SDS011;9574;47.282;9.640;2023-04-21T06:58:18;4.47;;;3.33;;
18883;SDS011;9574;47.282;9.640;2023-04-21T07:00:45;3.10;;;2.63;;
18883;SDS011;9574;47.282;9.640;2023-04-21T07:03:12;2.83;;;2.50;;
18883;SDS011;9574;47.282;9.640;2023-04-21T07:05:39;4.57;;;2.57;;
18883;SDS011;9574;47.282;9.640;2023-04-21T07:08:08;3.13;;;2.47;;
18883;SDS011;9574;47.282;9.640;2023-04-21T07:10:35;4.57;;;2.97;;
18883;SDS011;9574;47.282;9.640;2023-04-21T07:13:02;2.60;;;2.40;;
18883;SDS011;9574;47.282;9.640;2023-04-21T07:15:29;3.23;;;2.33;;
18883;SDS011;9574;47.282;9.640;2023-04-21T07:17:56;4.07;;;3.00;;
18883;SDS011;9574;47.282;9.640;2023-04-21T07:20:23;3.50;;;2.60;;
18883;SDS011;9574;47.282;9.640;2023-04-21T07:22:50;3.87;;;2.80;;
18883;SDS011;9574;47.282;9.640;2023-04-21T07:25:19;3.63;;;2.90;;
18883;SDS011;9574;47.282;9.640;2023-04-21T07:27:46;4.20;;;2.80;;
18883;SDS011;9574;47.282;9.640;2023-04-21T07:30:13;4.67;;;2.73;;
18883;SDS011;9574;47.282;9.640;2023-04-21T07:32:40;4.33;;;3.10;;
18883;SDS011;9574;47.282;9.640;2023-04-21T07:35:08;4.23;;;3.30;;
18883;SDS011;9574;47.282;9.640;2023-04-21T07:37:35;4.43;;;3.27;;
18883;SDS011;9574;47.282;9.640;2023-04-21T07:40:04;3.00;;;2.40;;
18883;SDS011;9574;47.282;9.640;2023-04-21T07:42:33;5.23;;;2.60;;
18883;SDS011;9574;47.282;9.640;2023-04-21T07:45:00;2.07;;;1.80;;
18883;SDS011;9574;47.282;9.640;2023-04-21T07:47:27;2.17;;;1.97;;
18883;SDS011;9574;47.282;9.640;2023-04-21T07:49:55;3.40;;;3.10;;
18883;SDS011;9574;47.282;9.640;2023-04-21T07:52:22;2.53;;;2.13;;
18883;SDS011;9574;47.282;9.640;2023-04-21T07:54:49;3.33;;;2.37;;
18883;SDS011;9574;47.282;9.640;2023-04-21T07:57:16;2.67;;;2.00;;
18883;SDS011;9574;47.282;9.640;2023-04-21T07:59:45;2.60;;;2.10;;
18883;SDS011;9574;47.282;9.640;2023-04-21T08:02:12;2.90;;;2.13;;
18883;SDS011;9574;47.282;9.640;2023-04-21T08:04:39;3.50;;;2.20;;
18883;SDS011;9574;47.282;9.640;2023-04-21T08:07:06;2.67;;;2.13;;
18883;SDS011;9574;47.282;9.640;2023-04-21T08:09:33;3.87;;;2.10;;
18883;SDS011;9574;47.282;9.640;2023-04-21T08:12:00;5.83;;;2.47;;
18883;SDS011;9574;47.282;9.640;2023-04-21T08:14:28;2.43;;;1.90;;
18883;SDS011;9574;47.282;9.640;2023-04-21T08:16:57;2.13;;;1.83;;
18883;SDS011;9574;47.282;9.640;2023-04-21T08:19:24;2.27;;;2.07;;
18883;SDS011;9574;47.282;9.640;2023-04-21T08:21:51;3.03;;;2.03;;
18883;SDS011;9574;47.282;9.640;2023-04-21T08:24:18;2.37;;;1.90;;
18883;SDS011;9574;47.282;9.640;2023-04-21T08:26:45;2.23;;;1.80;;
18883;SDS011;9574;47.282;9.640;2023-04-21T08:29:12;2.07;;;1.87;;
18883;SDS011;9574;47.282;9.640;2023-04-21T08:31:40;2.47;;;2.20;;
18883;SDS011;9574;47.282;9.640;2023-04-21T08:34:08;2.13;;;1.93;;
18883;SDS011;9574;47.282;9.640;2023-04-21T08:36:35;2.77;;;2.40;;
18883;SDS011;9574;47.282;9.640;2023-04-21T08:39:02;6.27;;;1.87;;
18883;SDS011;9574;47.282;9.640;2023-04-21T08:41:29;2.57;;;2.37;;
18883;SDS011;9574;47.282;9.640;2023-04-21T08:43:56;1.57;;;1.47;;
18883;SDS011;9574;47.282;9.640;2023-04-21T08:46:23;2.73;;;2.00;;
18883;SDS011;9574;47.282;9.640;2023-04-21T08:48:52;3.10;;;1.70;;
18883;SDS011;9574;47.282;9.640;2023-04-21T08:51:21;1.83;;;1.63;;
18883;SDS011;9574;47.282;9.640;2023-04-21T08:53:49;4.37;;;1.80;;
18883;SDS011;9574;47.282;9.640;2023-04-21T08:56:16;2.30;;;1.80;;
18883;SDS011;9574;47.282;9.640;2023-04-21T08:58:43;2.43;;;1.63;;
18883;SDS011;9574;47.282;9.640;2023-04-21T09:01:10;1.77;;;1.47;;
18883;SDS011;9574;47.282;9.640;2023-04-21T09:03:37;2.00;;;1.70;;
18883;SDS011;9574;47.282;9.640;2023-04-21T09:06:05;2.00;;;1.70;;
18883;SDS011;9574;47.282;9.640;2023-04-21T09:08:35;2.50;;;1.93;;
18883;SDS011;9574;47.282;9.640;2023-04-21T09:11:04;2.07;;;1.70;;
18883;SDS011;9574;47.282;9.640;2023-04-21T09:13:31;1.83;;;1.57;;
18883;SDS011;9574;47.282;9.640;2023-04-21T09:16:00;2.73;;;1.90;;
18883;SDS011;9574;47.282;9.640;2023-04-21T09:18:29;1.60;;;1.50;;
18883;SDS011;9574;47.282;9.640;2023-04-21T09:21:06;3.47;;;1.63;;
18883;SDS011;9574;47.282;9.640;2023-04-21T09:23:42;1.47;;;1.17;;
18883;SDS011;9574;47.282;9.640;2023-04-21T09:26:10;2.30;;;1.20;;
18883;SDS011;9574;47.282;9.640;2023-04-21T09:28:41;4.37;;;1.33;;
18883;SDS011;9574;47.282;9.640;2023-04-21T09:31:12;2.03;;;1.50;;
18883;SDS011;9574;47.282;9.640;2023-04-21T09:33:44;1.43;;;1.33;;
18883;SDS011;9574;47.282;9.640;2023-04-21T09:36:18;1.87;;;1.20;;
18883;SDS011;9574;47.282;9.640;2023-04-21T09:38:55;2.10;;;1.20;;
18883;SDS011;9574;47.282;9.640;2023-04-21T09:41:22;1.13;;;1.03;;
18883;SDS011;9574;47.282;9.640;2023-04-21T09:43:50;3.60;;;0.80;;
18883;SDS011;9574;47.282;9.640;2023-04-21T09:46:17;0.80;;;0.80;;
18883;SDS011;9574;47.282;9.640;2023-04-21T09:48:45;1.73;;;1.00;;
18883;SDS011;9574;47.282;9.640;2023-04-21T09:51:14;1.00;;;0.80;;
18883;SDS011;9574;47.282;9.640;2023-04-21T09:53:43;0.70;;;0.70;;
18883;SDS011;9574;47.282;9.640;2023-04-21T09:56:13;2.90;;;0.70;;
18883;SDS011;9574;47.282;9.640;2023-04-21T09:58:43;0.73;;;0.73;;
18883;SDS011;9574;47.282;9.640;2023-04-21T10:01:13;0.90;;;0.80;;
18883;SDS011;9574;47.282;9.640;2023-04-21T10:03:41;1.03;;;0.80;;
18883;SDS011;9574;47.282;9.640;2023-04-21T10:06:10;0.73;;;0.73;;
18883;SDS011;9574;47.282;9.640;2023-04-21T10:08:37;2.20;;;0.70;;
18883;SDS011;9574;47.282;9.640;2023-04-21T10:11:05;1.60;;;1.07;;
18883;SDS011;9574;47.282;9.640;2023-04-21T10:13:35;1.07;;;0.97;;
18883;SDS011;9574;47.282;9.640;2023-04-21T10:16:03;0.70;;;0.70;;
18883;SDS011;9574;47.282;9.640;2023-04-21T10:18:33;1.13;;;0.90;;
18883;SDS011;9574;47.282;9.640;2023-04-21T10:21:03;1.63;;;0.80;;
18883;SDS011;9574;47.282;9.640;2023-04-21T10:23:35;1.47;;;0.83;;
18883;SDS011;9574;47.282;9.640;2023-04-21T10:26:04;1.53;;;1.20;;
18883;SDS011;9574;47.282;9.640;2023-04-21T10:28:51;1.30;;;0.80;;
18883;SDS011;9574;47.282;9.640;2023-04-21T10:31:19;0.83;;;0.70;;
18883;SDS011;9574;47.282;9.640;2023-04-21T10:39:54;0.80;;;0.80;;
18883;SDS011;9574;47.282;9.640;2023-04-21T10:42:28;0.80;;;0.80;;
18883;SDS011;9574;47.282;9.640;2023-04-21T10:45:10;0.97;;;0.97;;
18883;SDS011;9574;47.282;9.640;2023-04-21T10:47:41;0.70;;;0.70;;
18883;SDS011;9574;47.282;9.640;2023-04-21T10:50:14;0.77;;;0.77;;
18883;SDS011;9574;47.282;9.640;2023-04-21T10:52:49;1.30;;;0.70;;
18883;SDS011;9574;47.282;9.640;2023-04-21T10:55:18;0.73;;;0.73;;
18883;SDS011;9574;47.282;9.640;2023-04-21T10:57:46;0.60;;;0.60;;
18883;SDS011;9574;47.282;9.640;2023-04-21T11:00:16;1.02;;;0.70;;
18883;SDS011;9574;47.282;9.640;2023-04-21T11:02:51;0.75;;;0.75;;
18883;SDS011;9574;47.282;9.640;2023-04-21T11:05:28;0.80;;;0.80;;
18883;SDS011;9574;47.282;9.640;2023-04-21T11:08:05;3.00;;;0.63;;
18883;SDS011;9574;47.282;9.640;2023-04-21T11:13:22;0.95;;;0.82;;
18883;SDS011;9574;47.282;9.640;2023-04-21T11:18:40;0.88;;;0.88;;
18883;SDS011;9574;47.282;9.640;2023-04-21T11:21:08;0.80;;;0.77;;
18883;SDS011;9574;47.282;9.640;2023-04-21T11:23:40;0.93;;;0.93;;
18883;SDS011;9574;47.282;9.640;2023-04-21T11:26:13;1.35;;;0.60;;
18883;SDS011;9574;47.282;9.640;2023-04-21T11:28:40;1.17;;;0.70;;
18883;SDS011;9574;47.282;9.640;2023-04-21T11:31:07;0.50;;;0.50;;
18883;SDS011;9574;47.282;9.640;2023-04-21T11:33:36;0.90;;;0.70;;
18883;SDS011;9574;47.282;9.640;2023-04-21T11:36:04;1.58;;;0.55;;
18883;SDS011;9574;47.282;9.640;2023-04-21T11:38:35;0.50;;;0.50;;
18883;SDS011;9574;47.282;9.640;2023-04-21T11:41:04;0.63;;;0.60;;
18883;SDS011;9574;47.282;9.640;2023-04-21T11:43:31;0.50;;;0.45;;
18883;SDS011;9574;47.282;9.640;2023-04-21T11:46:09;0.50;;;0.50;;
18883;SDS011;9574;47.282;9.640;2023-04-21T11:48:44;0.55;;;0.50;;
18883;SDS011;9574;47.282;9.640;2023-04-21T11:51:14;0.50;;;0.50;;
18883;SDS011;9574;47.282;9.640;2023-04-21T11:53:42;0.50;;;0.50;;
18883;SDS011;9574;47.282;9.640;2023-04-21T11:56:16;0.88;;;0.65;;
18883;SDS011;9574;47.282;9.640;2023-04-21T11:58:44;3.05;;;0.50;;
18883;SDS011;9574;47.282;9.640;2023-04-21T12:01:13;0.50;;;0.50;;
18883;SDS011;9574;47.282;9.640;2023-04-21T12:03:41;0.57;;;0.57;;
18883;SDS011;9574;47.282;9.640;2023-04-21T12:06:09;0.85;;;0.30;;
18883;SDS011;9574;47.282;9.640;2023-04-21T12:08:45;0.38;;;0.38;;
18883;SDS011;9574;47.282;9.640;2023-04-21T12:11:14;0.30;;;0.30;;
18883;SDS011;9574;47.282;9.640;2023-04-21T12:13:41;0.40;;;0.40;;
18883;SDS011;9574;47.282;9.640;2023-04-21T12:16:11;0.40;;;0.40;;
18883;SDS011;9574;47.282;9.640;2023-04-21T12:18:38;0.35;;;0.35;;
18883;SDS011;9574;47.282;9.640;2023-04-21T12:21:05;0.30;;;0.30;;
18883;SDS011;9574;47.282;9.640;2023-04-21T12:23:33;0.45;;;0.35;;
18883;SDS011;9574;47.282;9.640;2023-04-21T12:26:00;0.52;;;0.32;;
18883;SDS011;9574;47.282;9.640;2023-04-21T12:28:28;0.40;;;0.30;;
18883;SDS011;9574;47.282;9.640;2023-04-21T12:30:55;0.47;;;0.30;;
18883;SDS011;9574;47.282;9.640;2023-04-21T12:33:22;0.50;;;0.50;;
18883;SDS011;9574;47.282;9.640;2023-04-21T12:35:49;1.65;;;0.30;;
18883;SDS011;9574;47.282;9.640;2023-04-21T12:38:16;0.30;;;0.30;;
18883;SDS011;9574;47.282;9.640;2023-04-21T12:40:44;0.15;;;0.15;;
18883;SDS011;9574;47.282;9.640;2023-04-21T12:43:11;0.40;;;0.40;;
18883;SDS011;9574;47.282;9.640;2023-04-21T12:45:38;0.82;;;0.60;;
18883;SDS011;9574;47.282;9.640;2023-04-21T12:48:05;0.32;;;0.30;;
18883;SDS011;9574;47.282;9.640;2023-04-21T12:50:32;0.30;;;0.30;;
18883;SDS011;9574;47.282;9.640;2023-04-21T12:52:59;0.98;;;0.30;;
18883;SDS011;9574;47.282;9.640;2023-04-21T12:55:26;0.20;;;0.20;;
18883;SDS011;9574;47.282;9.640;2023-04-21T12:57:54;0.35;;;0.30;;
18883;SDS011;9574;47.282;9.640;2023-04-21T13:00:21;0.32;;;0.32;;
18883;SDS011;9574;47.282;9.640;2023-04-21T13:02:48;0.63;;;0.30;;
18883;SDS011;9574;47.282;9.640;2023-04-21T13:05:15;0.30;;;0.30;;
18883;SDS011;9574;47.282;9.640;2023-04-21T13:07:42;0.30;;;0.30;;
18883;SDS011;9574;47.282;9.640;2023-04-21T13:10:10;0.25;;;0.25;;
18883;SDS011;9574;47.282;9.640;2023-04-21T13:12:37;0.40;;;0.40;;
18883;SDS011;9574;47.282;9.640;2023-04-21T13:15:07;0.60;;;0.60;;
18883;SDS011;9574;47.282;9.640;2023-04-21T13:17:35;0.30;;;0.30;;
18883;SDS011;9574;47.282;9.640;2023-04-21T13:20:02;0.40;;;0.40;;
18883;SDS011;9574;47.282;9.640;2023-04-21T13:22:30;0.30;;;0.30;;
18883;SDS011;9574;47.282;9.640;2023-04-21T13:24:58;0.45;;;0.45;;
18883;SDS011;9574;47.282;9.640;2023-04-21T13:27:25;0.75;;;0.50;;
18883;SDS011;9574;47.282;9.640;2023-04-21T13:29:52;0.60;;;0.60;;
18883;SDS011;9574;47.282;9.640;2023-04-21T13:32:21;1.75;;;0.50;;
18883;SDS011;9574;47.282;9.640;2023-04-21T13:34:48;0.50;;;0.50;;
18883;SDS011;9574;47.282;9.640;2023-04-21T13:37:15;0.50;;;0.50;;
18883;SDS011;9574;47.282;9.640;2023-04-21T13:39:42;0.50;;;0.50;;
18883;SDS011;9574;47.282;9.640;2023-04-21T13:42:10;1.25;;;0.50;;
18883;SDS011;9574;47.282;9.640;2023-04-21T13:44:38;0.90;;;0.60;;
18883;SDS011;9574;47.282;9.640;2023-04-21T13:47:05;0.60;;;0.60;;
18883;SDS011;9574;47.282;9.640;2023-04-21T13:49:34;0.90;;;0.50;;
18883;SDS011;9574;47.282;9.640;2023-04-21T13:52:01;0.75;;;0.47;;
18883;SDS011;9574;47.282;9.640;2023-04-21T13:54:28;0.90;;;0.70;;
18883;SDS011;9574;47.282;9.640;2023-04-21T13:56:55;1.73;;;0.55;;
18883;SDS011;9574;47.282;9.640;2023-04-21T13:59:22;0.60;;;0.60;;
18883;SDS011;9574;47.282;9.640;2023-04-21T14:01:49;0.55;;;0.55;;
18883;SDS011;9574;47.282;9.640;2023-04-21T14:04:16;0.47;;;0.47;;
18883;SDS011;9574;47.282;9.640;2023-04-21T14:06:47;0.70;;;0.70;;
18883;SDS011;9574;47.282;9.640;2023-04-21T14:09:15;1.90;;;1.20;;
18883;SDS011;9574;47.282;9.640;2023-04-21T14:11:42;0.95;;;0.60;;
18883;SDS011;9574;47.282;9.640;2023-04-21T14:14:09;0.50;;;0.40;;
18883;SDS011;9574;47.282;9.640;2023-04-21T14:16:36;1.67;;;0.50;;
18883;SDS011;9574;47.282;9.640;2023-04-21T14:19:03;0.63;;;0.63;;
18883;SDS011;9574;47.282;9.640;2023-04-21T14:21:30;1.60;;;0.70;;
18883;SDS011;9574;47.282;9.640;2023-04-21T14:23:58;0.65;;;0.65;;
18883;SDS011;9574;47.282;9.640;2023-04-21T14:26:25;0.60;;;0.60;;
18883;SDS011;9574;47.282;9.640;2023-04-21T14:28:52;0.50;;;0.50;;
18883;SDS011;9574;47.282;9.640;2023-04-21T14:31:20;0.60;;;0.60;;
18883;SDS011;9574;47.282;9.640;2023-04-21T14:33:47;0.50;;;0.50;;
18883;SDS011;9574;47.282;9.640;2023-04-21T14:36:14;10.50;;;1.13;;
18883;SDS011;9574;47.282;9.640;2023-04-21T14:38:41;1.13;;;0.70;;
18883;SDS011;9574;47.282;9.640;2023-04-21T14:41:09;1.63;;;0.95;;
18883;SDS011;9574;47.282;9.640;2023-04-21T14:43:36;1.85;;;1.00;;
18883;SDS011;9574;47.282;9.640;2023-04-21T14:46:03;0.68;;;0.68;;
18883;SDS011;9574;47.282;9.640;2023-04-21T14:48:30;7.63;;;0.75;;
18883;SDS011;9574;47.282;9.640;2023-04-21T14:50:58;2.05;;;0.88;;
18883;SDS011;9574;47.282;9.640;2023-04-21T14:53:25;0.75;;;0.70;;
18883;SDS011;9574;47.282;9.640;2023-04-21T14:55:52;2.22;;;1.15;;
18883;SDS011;9574;47.282;9.640;2023-04-21T14:58:20;0.57;;;0.50;;
18883;SDS011;9574;47.282;9.640;2023-04-21T15:00:47;0.55;;;0.55;;
18883;SDS011;9574;47.282;9.640;2023-04-21T15:03:15;0.52;;;0.52;;
18883;SDS011;9574;47.282;9.640;2023-04-21T15:05:41;1.65;;;0.85;;
18883;SDS011;9574;47.282;9.640;2023-04-21T15:08:08;0.70;;;0.60;;
18883;SDS011;9574;47.282;9.640;2023-04-21T15:10:35;0.75;;;0.70;;
18883;SDS011;9574;47.282;9.640;2023-04-21T15:13:02;0.88;;;0.60;;
18883;SDS011;9574;47.282;9.640;2023-04-21T15:15:31;1.60;;;0.80;;
18883;SDS011;9574;47.282;9.640;2023-04-21T15:17:58;0.65;;;0.65;;